createdAt,value
2018-01-22T00:00:50.862Z,985.97
2018-01-22T00:01:50.779Z,986.00
2018-01-22T00:02:50.695Z,985.96
2018-01-22T00:03:50.611Z,985.92
2018-01-22T00:04:50.528Z,985.93
2018-01-22T00:05:50.445Z,985.85
2018-01-22T00:06:50.360Z,985.83
2018-01-22T00:07:50.278Z,985.88
2018-01-22T00:08:50.194Z,985.86
2018-01-22T00:09:50.112Z,985.89
2018-01-22T00:10:50.028Z,985.89
2018-01-22T00:11:49.945Z,985.89
2018-01-22T00:12:49.860Z,985.87
2018-01-22T00:13:49.778Z,985.79
2018-01-22T00:14:49.693Z,985.80
2018-01-22T00:15:49.609Z,985.77
2018-01-22T00:16:49.529Z,985.76
2018-01-22T00:17:49.442Z,985.71
2018-01-22T00:18:49.359Z,985.74
2018-01-22T00:19:49.275Z,985.72
2018-01-22T00:20:49.191Z,985.61
2018-01-22T00:21:49.109Z,985.61
2018-01-22T00:22:49.023Z,985.57
2018-01-22T00:23:48.944Z,985.55
2018-01-22T00:24:48.856Z,985.53
2018-01-22T00:25:48.774Z,985.51
2018-01-22T00:26:48.689Z,985.46
2018-01-22T00:27:48.606Z,985.42
2018-01-22T00:28:48.522Z,985.39
2018-01-22T00:29:48.438Z,985.39
2018-01-22T00:30:48.353Z,985.39
2018-01-22T00:31:48.270Z,985.37
2018-01-22T00:32:48.186Z,985.31
2018-01-22T00:33:48.102Z,985.37
2018-01-22T00:34:48.018Z,985.35
2018-01-22T00:35:47.934Z,985.36
2018-01-22T00:36:47.852Z,985.35
2018-01-22T00:37:47.767Z,985.28
2018-01-22T00:38:47.682Z,985.28
2018-01-22T00:39:47.599Z,985.22
2018-01-22T00:40:47.516Z,985.16
2018-01-22T00:41:47.430Z,985.05
2018-01-22T00:42:47.347Z,984.97
2018-01-22T00:43:47.264Z,984.85
2018-01-22T00:44:47.180Z,984.79
2018-01-22T00:45:47.099Z,984.66
2018-01-22T00:46:47.013Z,984.57
2018-01-22T00:47:46.927Z,984.49
2018-01-22T00:48:46.844Z,984.49
2018-01-22T00:49:46.759Z,984.41
2018-01-22T00:50:46.675Z,984.40
2018-01-22T00:51:46.592Z,984.31
2018-01-22T00:52:46.507Z,984.34
2018-01-22T00:53:46.424Z,984.33
2018-01-22T00:54:46.338Z,984.29
2018-01-22T00:55:46.253Z,984.40
2018-01-22T00:56:46.174Z,984.50
2018-01-22T00:57:46.087Z,984.51
2018-01-22T00:58:46.002Z,984.53
2018-01-22T00:59:45.918Z,984.48
2018-01-22T01:00:45.834Z,984.54
2018-01-22T01:01:45.749Z,984.53
2018-01-22T01:02:45.667Z,984.51
2018-01-22T01:03:45.582Z,984.49
2018-01-22T01:04:45.498Z,984.51
2018-01-22T01:05:45.414Z,984.43
2018-01-22T01:06:45.331Z,984.42
2018-01-22T01:07:45.246Z,984.46
2018-01-22T01:08:45.163Z,984.48
2018-01-22T01:09:45.080Z,984.41
2018-01-22T01:10:44.994Z,984.43
2018-01-22T01:11:44.910Z,984.47
2018-01-22T01:12:44.830Z,984.45
2018-01-22T01:13:44.751Z,984.51
2018-01-22T01:14:44.659Z,984.51
2018-01-22T01:15:44.575Z,984.52
2018-01-22T01:16:44.491Z,984.53
2018-01-22T01:17:44.408Z,984.47
2018-01-22T01:18:44.323Z,984.43
2018-01-22T01:19:44.238Z,984.42
2018-01-22T01:20:44.156Z,984.47
2018-01-22T01:21:44.072Z,984.40
2018-01-22T01:22:43.988Z,984.40
2018-01-22T01:23:43.905Z,984.37
2018-01-22T01:24:43.821Z,984.37
2018-01-22T01:25:43.738Z,984.32
2018-01-22T01:26:43.654Z,984.31
2018-01-22T01:27:43.569Z,984.30
2018-01-22T01:28:43.486Z,984.31
2018-01-22T01:29:43.404Z,984.28
2018-01-22T01:30:43.318Z,984.26
2018-01-22T01:31:43.233Z,984.22
2018-01-22T01:32:43.151Z,984.21
2018-01-22T01:33:43.067Z,984.21
2018-01-22T01:34:42.988Z,984.21
2018-01-22T01:35:42.900Z,984.23
2018-01-22T01:36:42.816Z,984.18
2018-01-22T01:37:42.732Z,984.12
2018-01-22T01:38:42.648Z,984.18
2018-01-22T01:39:42.565Z,984.13
2018-01-22T01:40:42.481Z,984.09
2018-01-22T01:41:42.399Z,984.09
2018-01-22T01:42:42.318Z,984.09
2018-01-22T01:43:42.229Z,984.10
2018-01-22T01:44:42.147Z,984.06
2018-01-22T01:45:42.062Z,984.05
2018-01-22T01:46:41.980Z,984.05
2018-01-22T01:47:41.894Z,984.03
2018-01-22T01:48:41.811Z,984.00
2018-01-22T01:49:41.728Z,984.00
2018-01-22T01:50:41.793Z,984.01
2018-01-22T01:51:41.559Z,984.02
2018-01-22T01:52:41.476Z,983.97
2018-01-22T01:53:41.392Z,983.96
2018-01-22T01:54:41.307Z,984.01
2018-01-22T01:55:41.224Z,983.91
2018-01-22T01:56:41.141Z,983.90
2018-01-22T01:57:41.057Z,983.84
2018-01-22T01:58:40.972Z,983.77
2018-01-22T01:59:40.889Z,983.75
2018-01-22T02:00:40.805Z,983.74
2018-01-22T02:01:40.722Z,983.72
2018-01-22T02:02:40.636Z,983.75
2018-01-22T02:03:40.553Z,983.73
2018-01-22T02:04:40.470Z,983.70
2018-01-22T02:05:40.386Z,983.73
2018-01-22T02:06:40.302Z,983.73
2018-01-22T02:07:40.219Z,983.77
2018-01-22T02:08:40.135Z,983.73
2018-01-22T02:09:40.052Z,983.73
2018-01-22T02:10:39.967Z,983.72
2018-01-22T02:11:39.882Z,983.66
2018-01-22T02:12:39.800Z,983.62
2018-01-22T02:13:39.717Z,983.64
2018-01-22T02:14:39.632Z,983.61
2018-01-22T02:15:39.556Z,983.52
2018-01-22T02:16:39.467Z,983.47
2018-01-22T02:17:39.381Z,983.42
2018-01-22T02:18:39.297Z,983.37
2018-01-22T02:19:39.214Z,983.32
2018-01-22T02:20:39.130Z,983.25
2018-01-22T02:21:39.046Z,983.24
2018-01-22T02:22:38.962Z,983.20
2018-01-22T02:23:38.878Z,983.17
2018-01-22T02:24:38.800Z,983.14
2018-01-22T02:25:38.711Z,983.13
2018-01-22T02:26:38.629Z,983.11
2018-01-22T02:27:38.544Z,983.08
2018-01-22T02:28:38.458Z,983.06
2018-01-22T02:29:38.376Z,983.04
2018-01-22T02:30:38.292Z,983.03
2018-01-22T02:31:38.259Z,983.02
2018-01-22T02:32:38.127Z,983.03
2018-01-22T02:33:38.042Z,983.02
2018-01-22T02:34:37.957Z,983.07
2018-01-22T02:35:37.874Z,983.06
2018-01-22T02:36:37.790Z,983.04
2018-01-22T02:37:37.707Z,983.10
2018-01-22T02:38:37.623Z,983.10
2018-01-22T02:39:37.540Z,983.13
2018-01-22T02:40:37.456Z,983.19
2018-01-22T02:41:37.372Z,983.18
2018-01-22T02:42:37.289Z,983.18
2018-01-22T02:43:37.205Z,983.18
2018-01-22T02:44:37.122Z,983.24
2018-01-22T02:45:37.038Z,983.22
2018-01-22T02:46:36.954Z,983.19
2018-01-22T02:47:36.870Z,983.19
2018-01-22T02:48:36.786Z,983.24
2018-01-22T02:49:36.704Z,983.22
2018-01-22T02:50:36.619Z,983.24
2018-01-22T02:51:36.535Z,983.25
2018-01-22T02:52:36.451Z,983.27
2018-01-22T02:53:36.368Z,983.20
2018-01-22T02:54:36.283Z,983.22
2018-01-22T02:55:36.200Z,983.26
2018-01-22T02:56:36.118Z,983.27
2018-01-22T02:57:36.032Z,983.24
2018-01-22T02:58:35.947Z,983.22
2018-01-22T02:59:35.864Z,983.23
2018-01-22T03:00:35.781Z,983.19
2018-01-22T03:01:35.696Z,983.14
2018-01-22T03:02:35.611Z,983.08
2018-01-22T03:03:35.527Z,983.01
2018-01-22T03:04:35.445Z,982.90
2018-01-22T03:05:35.360Z,982.82
2018-01-22T03:06:35.276Z,982.83
2018-01-22T03:07:35.191Z,982.79
2018-01-22T03:08:35.111Z,982.77
2018-01-22T03:09:35.025Z,982.82
2018-01-22T03:10:34.942Z,982.80
2018-01-22T03:11:34.856Z,982.78
2018-01-22T03:12:34.774Z,982.82
2018-01-22T03:13:34.688Z,982.81
2018-01-22T03:14:34.604Z,982.78
2018-01-22T03:15:34.521Z,982.83
2018-01-22T03:16:34.437Z,982.83
2018-01-22T03:17:34.353Z,982.79
2018-01-22T03:18:34.268Z,982.81
2018-01-22T03:19:34.185Z,982.72
2018-01-22T03:20:34.101Z,982.76
2018-01-22T03:21:34.017Z,982.79
2018-01-22T03:22:33.932Z,982.79
2018-01-22T03:23:33.848Z,982.74
2018-01-22T03:24:33.765Z,982.82
2018-01-22T03:25:33.681Z,982.85
2018-01-22T03:26:33.597Z,982.89
2018-01-22T03:27:33.511Z,982.91
2018-01-22T03:28:33.429Z,982.95
2018-01-22T03:29:33.345Z,982.98
2018-01-22T03:30:33.260Z,982.95
2018-01-22T03:31:33.178Z,982.94
2018-01-22T03:32:33.093Z,982.99
2018-01-22T03:33:33.011Z,982.94
2018-01-22T03:34:32.925Z,983.00
2018-01-22T03:35:32.844Z,983.00
2018-01-22T03:36:32.758Z,982.98
2018-01-22T03:37:32.674Z,982.96
2018-01-22T03:38:32.592Z,983.01
2018-01-22T03:39:32.505Z,982.99
2018-01-22T03:40:32.423Z,983.00
2018-01-22T03:41:32.339Z,983.00
2018-01-22T03:42:32.255Z,982.98
2018-01-22T03:43:32.172Z,982.98
2018-01-22T03:44:32.088Z,982.88
2018-01-22T03:45:32.005Z,982.92
2018-01-22T03:46:31.920Z,982.84
2018-01-22T03:47:31.837Z,982.85
2018-01-22T03:48:31.753Z,982.82
2018-01-22T03:49:31.669Z,982.92
2018-01-22T03:50:31.586Z,982.93
2018-01-22T03:51:31.503Z,982.94
2018-01-22T03:52:31.420Z,982.93
2018-01-22T03:53:31.335Z,982.95
2018-01-22T03:54:31.250Z,982.95
2018-01-22T03:55:31.167Z,982.99
2018-01-22T03:56:31.086Z,982.97
2018-01-22T03:57:31.000Z,982.98
2018-01-22T03:58:30.915Z,982.98
2018-01-22T03:59:30.833Z,982.98
2018-01-22T04:00:30.750Z,982.93
2018-01-22T04:01:30.666Z,982.99
2018-01-22T04:02:30.582Z,982.98
2018-01-22T04:03:30.499Z,982.96
2018-01-22T04:04:30.416Z,982.94
2018-01-22T04:05:30.332Z,982.95
2018-01-22T04:06:30.252Z,982.93
2018-01-22T04:07:30.165Z,982.92
2018-01-22T04:08:30.081Z,982.89
2018-01-22T04:09:29.998Z,982.93
2018-01-22T04:10:29.914Z,982.87
2018-01-22T04:11:29.830Z,982.94
2018-01-22T04:12:29.749Z,982.88
2018-01-22T04:13:29.664Z,982.90
2018-01-22T04:14:29.579Z,982.87
2018-01-22T04:15:29.497Z,982.87
2018-01-22T04:16:29.413Z,982.80
2018-01-22T04:17:29.330Z,982.79
2018-01-22T04:18:29.246Z,982.75
2018-01-22T04:19:29.163Z,982.69
2018-01-22T04:20:29.079Z,982.68
2018-01-22T04:21:28.996Z,982.72
2018-01-22T04:22:28.912Z,982.66
2018-01-22T04:23:28.828Z,982.66
2018-01-22T04:24:28.746Z,982.66
2018-01-22T04:25:28.661Z,982.67
2018-01-22T04:26:28.578Z,982.58
2018-01-22T04:27:28.493Z,982.61
2018-01-22T04:28:28.411Z,982.55
2018-01-22T04:29:28.328Z,982.60
2018-01-22T04:30:28.244Z,982.58
2018-01-22T04:31:28.159Z,982.62
2018-01-22T04:32:28.077Z,982.56
2018-01-22T04:33:27.994Z,982.58
2018-01-22T04:34:27.908Z,982.50
2018-01-22T04:35:27.826Z,982.57
2018-01-22T04:36:27.742Z,982.57
2018-01-22T04:37:27.660Z,982.57
2018-01-22T04:38:27.575Z,982.53
2018-01-22T04:39:27.492Z,982.48
2018-01-22T04:40:27.409Z,982.45
2018-01-22T04:41:27.325Z,982.44
2018-01-22T04:42:27.242Z,982.46
2018-01-22T04:43:27.158Z,982.46
2018-01-22T04:44:27.076Z,982.51
2018-01-22T04:45:26.992Z,982.46
2018-01-22T04:46:26.907Z,982.54
2018-01-22T04:47:26.824Z,982.56
2018-01-22T04:48:26.753Z,982.51
2018-01-22T04:49:26.658Z,982.45
2018-01-22T04:50:26.573Z,982.45
2018-01-22T04:51:26.489Z,982.46
2018-01-22T04:52:26.406Z,982.43
2018-01-22T04:53:26.323Z,982.39
2018-01-22T04:54:26.239Z,982.35
2018-01-22T04:55:26.155Z,982.37
2018-01-22T04:56:26.072Z,982.39
2018-01-22T04:57:25.989Z,982.43
2018-01-22T04:58:25.905Z,982.41
2018-01-22T04:59:25.821Z,982.39
2018-01-22T05:00:25.737Z,982.41
2018-01-22T05:01:25.655Z,982.36
2018-01-22T05:02:25.570Z,982.37
2018-01-22T05:03:25.486Z,982.26
2018-01-22T05:04:25.404Z,982.30
2018-01-22T05:05:25.320Z,982.31
2018-01-22T05:06:25.235Z,982.34
2018-01-22T05:07:25.152Z,982.36
2018-01-22T05:08:25.069Z,982.41
2018-01-22T05:09:24.985Z,982.41
2018-01-22T05:10:24.902Z,982.43
2018-01-22T05:11:24.818Z,982.41
2018-01-22T05:12:24.735Z,982.37
2018-01-22T05:13:24.651Z,982.34
2018-01-22T05:14:24.568Z,982.29
2018-01-22T05:15:24.484Z,982.26
2018-01-22T05:16:24.401Z,982.24
2018-01-22T05:17:24.336Z,982.21
2018-01-22T05:18:24.234Z,982.26
2018-01-22T05:19:24.151Z,982.26
2018-01-22T05:20:24.067Z,982.28
2018-01-22T05:21:23.985Z,982.29
2018-01-22T05:22:23.899Z,982.28
2018-01-22T05:23:23.820Z,982.28
2018-01-22T05:24:23.734Z,982.29
2018-01-22T05:25:23.651Z,982.30
2018-01-22T05:26:23.567Z,982.30
2018-01-22T05:27:23.485Z,982.33
2018-01-22T05:28:23.401Z,982.36
2018-01-22T05:29:23.373Z,982.38
2018-01-22T05:30:23.234Z,982.32
2018-01-22T05:31:23.149Z,982.30
2018-01-22T05:32:23.070Z,982.31
2018-01-22T05:33:22.984Z,982.31
2018-01-22T05:34:22.900Z,982.30
2018-01-22T05:35:22.816Z,982.24
2018-01-22T05:36:22.733Z,982.26
2018-01-22T05:37:22.649Z,982.24
2018-01-22T05:38:22.616Z,982.28
2018-01-22T05:39:22.483Z,982.26
2018-01-22T05:40:22.400Z,982.35
2018-01-22T05:41:22.317Z,982.28
2018-01-22T05:42:22.231Z,982.28
2018-01-22T05:43:22.149Z,982.25
2018-01-22T05:44:22.067Z,982.24
2018-01-22T05:45:21.988Z,982.17
2018-01-22T05:46:21.900Z,982.15
2018-01-22T05:47:21.815Z,982.07
2018-01-22T05:48:21.731Z,982.07
2018-01-22T05:49:21.649Z,982.04
2018-01-22T05:50:21.565Z,982.01
2018-01-22T05:51:21.481Z,982.02
2018-01-22T05:52:21.398Z,982.00
2018-01-22T05:53:21.314Z,982.04
2018-01-22T05:54:21.230Z,982.03
2018-01-22T05:55:21.147Z,982.04
2018-01-22T05:56:21.064Z,982.00
2018-01-22T05:57:20.981Z,981.95
2018-01-22T05:58:20.896Z,981.97
2018-01-22T05:59:20.814Z,981.95
2018-01-22T06:00:20.730Z,981.92
2018-01-22T06:01:20.647Z,981.91
2018-01-22T06:02:20.607Z,981.94
2018-01-22T06:03:20.480Z,981.97
2018-01-22T06:04:20.396Z,981.97
2018-01-22T06:05:20.313Z,981.99
2018-01-22T06:06:20.233Z,981.96
2018-01-22T06:07:20.146Z,981.96
2018-01-22T06:08:20.064Z,981.97
2018-01-22T06:09:19.979Z,981.95
2018-01-22T06:10:19.894Z,981.95
2018-01-22T06:11:19.812Z,981.95
2018-01-22T06:12:19.729Z,981.92
2018-01-22T06:13:19.646Z,981.88
2018-01-22T06:14:19.561Z,981.90
2018-01-22T06:15:19.478Z,981.86
2018-01-22T06:16:19.395Z,981.82
2018-01-22T06:17:19.314Z,981.76
2018-01-22T06:18:19.227Z,981.75
2018-01-22T06:19:19.144Z,981.71
2018-01-22T06:20:19.061Z,981.63
2018-01-22T06:21:18.978Z,981.67
2018-01-22T06:22:18.894Z,981.60
2018-01-22T06:23:18.813Z,981.59
2018-01-22T06:24:18.727Z,981.63
2018-01-22T06:25:18.644Z,981.64
2018-01-22T06:26:18.560Z,981.64
2018-01-22T06:27:18.477Z,981.66
2018-01-22T06:28:18.394Z,981.66
2018-01-22T06:29:18.311Z,981.65
2018-01-22T06:30:18.226Z,981.62
2018-01-22T06:31:18.144Z,981.64
2018-01-22T06:32:18.060Z,981.61
2018-01-22T06:33:17.976Z,981.63
2018-01-22T06:34:17.892Z,981.62
2018-01-22T06:35:17.809Z,981.64
2018-01-22T06:36:17.725Z,981.61
2018-01-22T06:37:17.643Z,981.65
2018-01-22T06:38:17.558Z,981.60
2018-01-22T06:39:17.475Z,981.60
2018-01-22T06:40:17.392Z,981.61
2018-01-22T06:41:17.308Z,981.59
2018-01-22T06:42:17.226Z,981.60
2018-01-22T06:43:17.141Z,981.58
2018-01-22T06:44:17.059Z,981.61
2018-01-22T06:45:16.974Z,981.63
2018-01-22T06:46:16.891Z,981.61
2018-01-22T06:47:16.808Z,981.61
2018-01-22T06:48:16.724Z,981.58
2018-01-22T06:49:16.642Z,981.56
2018-01-22T06:50:16.557Z,981.55
2018-01-22T06:51:16.474Z,981.58
2018-01-22T06:52:16.416Z,981.63
2018-01-22T06:53:16.308Z,981.60
2018-01-22T06:54:16.224Z,981.58
2018-01-22T06:55:16.143Z,981.58
2018-01-22T06:56:16.058Z,981.59
2018-01-22T06:57:15.975Z,981.60
2018-01-22T06:58:15.891Z,981.59
2018-01-22T06:59:15.808Z,981.59
2018-01-22T07:00:15.725Z,981.55
2018-01-22T07:01:15.642Z,981.53
2018-01-22T07:02:15.558Z,981.52
2018-01-22T07:03:15.475Z,981.45
2018-01-22T07:04:15.392Z,981.40
2018-01-22T07:05:15.309Z,981.42
2018-01-22T07:06:15.225Z,981.39
2018-01-22T07:07:15.143Z,981.37
2018-01-22T07:08:15.061Z,981.38
2018-01-22T07:09:14.978Z,981.40
2018-01-22T07:10:14.893Z,981.41
2018-01-22T07:11:14.813Z,981.39
2018-01-22T07:12:14.727Z,981.42
2018-01-22T07:13:14.645Z,981.38
2018-01-22T07:14:14.562Z,981.41
2018-01-22T07:15:14.479Z,981.46
2018-01-22T07:16:14.397Z,981.42
2018-01-22T07:17:14.313Z,981.48
2018-01-22T07:18:14.231Z,981.48
2018-01-22T07:19:14.149Z,981.45
2018-01-22T07:20:14.065Z,981.46
2018-01-22T07:21:13.983Z,981.51
2018-01-22T07:22:13.900Z,981.49
2018-01-22T07:23:13.818Z,981.48
2018-01-22T07:24:13.736Z,981.48
2018-01-22T07:25:13.652Z,981.52
2018-01-22T07:26:13.569Z,981.52
2018-01-22T07:27:13.487Z,981.52
2018-01-22T07:28:13.404Z,981.50
2018-01-22T07:29:13.322Z,981.52
2018-01-22T07:30:13.244Z,981.53
2018-01-22T07:31:13.156Z,981.51
2018-01-22T07:32:13.074Z,981.56
2018-01-22T07:33:12.994Z,981.55
2018-01-22T07:34:12.909Z,981.59
2018-01-22T07:35:12.826Z,981.64
2018-01-22T07:36:12.744Z,981.62
2018-01-22T07:37:12.662Z,981.69
2018-01-22T07:38:12.579Z,981.70
2018-01-22T07:39:12.497Z,981.73
2018-01-22T07:40:12.414Z,981.71
2018-01-22T07:41:12.335Z,981.75
2018-01-22T07:42:12.250Z,981.74
2018-01-22T07:43:12.168Z,981.76
2018-01-22T07:44:12.087Z,981.75
2018-01-22T07:45:12.003Z,981.76
2018-01-22T07:46:11.920Z,981.79
2018-01-22T07:47:11.838Z,981.82
2018-01-22T07:48:11.756Z,981.81
2018-01-22T07:49:11.674Z,981.84
2018-01-22T07:50:11.591Z,981.78
2018-01-22T07:51:11.509Z,981.80
2018-01-22T07:52:11.428Z,981.81
2018-01-22T07:53:11.344Z,981.73
2018-01-22T07:54:11.262Z,981.80
2018-01-22T07:55:11.180Z,981.79
2018-01-22T07:56:11.098Z,981.86
2018-01-22T07:57:11.016Z,981.86
2018-01-22T07:58:10.933Z,981.83
2018-01-22T07:59:10.851Z,981.74
2018-01-22T08:00:10.772Z,981.75
2018-01-22T08:01:10.687Z,981.76
2018-01-22T08:02:10.610Z,981.74
2018-01-22T08:06:12.946Z,981.75
2018-01-22T08:07:12.865Z,981.77
2018-01-22T08:08:12.782Z,981.76
2018-01-22T08:09:12.700Z,981.76
2018-01-22T08:10:12.637Z,981.74
2018-01-22T08:11:12.535Z,981.69
2018-01-22T08:12:12.453Z,981.66
2018-01-22T08:13:12.370Z,981.65
2018-01-22T08:14:12.325Z,981.64
2018-01-22T08:15:12.207Z,981.58
2018-01-22T08:16:12.124Z,981.58
2018-01-22T08:17:12.044Z,981.55
2018-01-22T08:18:11.959Z,981.53
2018-01-22T08:19:11.877Z,981.48
2018-01-22T08:20:11.815Z,981.43
2018-01-22T08:21:11.712Z,981.37
2018-01-22T08:22:11.630Z,981.28
2018-01-22T08:23:11.549Z,981.35
2018-01-22T08:24:11.464Z,981.36
2018-01-22T08:25:11.383Z,981.30
2018-01-22T08:26:11.300Z,981.33
2018-01-22T08:27:11.220Z,981.31
2018-01-22T08:28:11.136Z,981.29
2018-01-22T08:29:11.054Z,981.27
2018-01-22T08:30:10.971Z,981.27
2018-01-22T08:31:10.889Z,981.28
2018-01-22T08:32:10.807Z,981.31
2018-01-22T08:33:10.725Z,981.31
2018-01-22T08:34:10.647Z,981.32
2018-01-22T08:35:10.560Z,981.39
2018-01-22T08:36:10.478Z,981.39
2018-01-22T08:37:10.395Z,981.40
2018-01-22T08:38:10.315Z,981.44
2018-01-22T08:39:10.232Z,981.40
2018-01-22T08:40:10.150Z,981.43
2018-01-22T08:41:10.068Z,981.42
2018-01-22T08:42:09.986Z,981.50
2018-01-22T08:43:09.904Z,981.59
2018-01-22T08:44:09.822Z,981.63
2018-01-22T08:45:09.740Z,981.62
2018-01-22T08:46:09.659Z,981.60
2018-01-22T08:47:09.577Z,981.58
2018-01-22T08:48:09.493Z,981.56
2018-01-22T08:49:09.416Z,981.56
2018-01-22T08:50:09.330Z,981.55
2018-01-22T08:51:09.249Z,981.64
2018-01-22T08:52:09.167Z,981.60
2018-01-22T08:53:09.106Z,981.59
2018-01-22T08:54:09.004Z,981.62
2018-01-22T08:55:08.923Z,981.62
2018-01-22T08:56:08.840Z,981.62
2018-01-22T08:57:08.758Z,981.63
2018-01-22T08:58:08.676Z,981.62
2018-01-22T08:59:08.595Z,981.57
2018-01-22T09:00:08.513Z,981.53
2018-01-22T09:01:08.431Z,981.45
2018-01-22T09:02:08.350Z,981.48
2018-01-22T09:03:08.267Z,981.46
2018-01-22T09:04:08.186Z,981.44
2018-01-22T09:05:08.104Z,981.39
2018-01-22T09:06:08.023Z,981.43
2018-01-22T09:07:07.941Z,981.41
2018-01-22T09:08:07.859Z,981.37
2018-01-22T09:09:07.777Z,981.42
2018-01-22T09:10:07.696Z,981.43
2018-01-22T09:11:07.614Z,981.42
2018-01-22T09:12:07.532Z,981.39
2018-01-22T09:13:07.450Z,981.40
2018-01-22T09:14:07.369Z,981.39
2018-01-22T09:15:07.288Z,981.43
2018-01-22T09:16:07.207Z,981.45
2018-01-22T09:17:07.127Z,981.47
2018-01-22T09:18:07.043Z,981.49
2018-01-22T09:19:06.962Z,981.44
2018-01-22T09:20:06.885Z,981.46
2018-01-22T09:21:06.799Z,981.48
2018-01-22T09:22:06.718Z,981.48
2018-01-22T09:23:06.636Z,981.51
2018-01-22T09:24:06.554Z,981.51
2018-01-22T09:25:06.473Z,981.54
2018-01-22T09:26:06.392Z,981.46
2018-01-22T09:27:06.311Z,981.50
2018-01-22T09:28:06.228Z,981.47
2018-01-22T09:29:06.148Z,981.49
2018-01-22T09:30:06.066Z,981.47
2018-01-22T09:31:05.985Z,981.45
2018-01-22T09:32:05.903Z,981.53
2018-01-22T09:33:05.822Z,981.47
2018-01-22T09:34:05.740Z,981.45
2018-01-22T09:35:05.660Z,981.42
2018-01-22T09:36:05.578Z,981.39
2018-01-22T09:37:05.496Z,981.38
2018-01-22T09:38:05.416Z,981.34
2018-01-22T09:39:05.335Z,981.36
2018-01-22T09:40:05.254Z,981.37
2018-01-22T09:41:05.172Z,981.36
2018-01-22T09:42:05.091Z,981.39
2018-01-22T09:43:05.012Z,981.40
2018-01-22T09:44:04.930Z,981.39
2018-01-22T09:45:04.847Z,981.39
2018-01-22T09:46:04.766Z,981.37
2018-01-22T09:47:04.686Z,981.35
2018-01-22T09:48:04.604Z,981.33
2018-01-22T09:49:04.575Z,981.41
2018-01-22T09:50:04.443Z,981.37
2018-01-22T09:51:04.362Z,981.38
2018-01-22T09:52:04.280Z,981.38
2018-01-22T09:53:04.200Z,981.43
2018-01-22T09:54:04.119Z,981.49
2018-01-22T09:55:04.039Z,981.50
2018-01-22T09:56:03.960Z,981.49
2018-01-22T09:57:03.877Z,981.51
2018-01-22T09:58:03.795Z,981.57
2018-01-22T09:59:03.715Z,981.62
2018-01-22T10:00:03.634Z,981.65
2018-01-22T10:01:03.553Z,981.67
2018-01-22T10:02:03.472Z,981.59
2018-01-22T10:03:03.392Z,981.67
2018-01-22T10:04:03.311Z,981.73
2018-01-22T10:05:03.231Z,981.75
2018-01-22T10:06:03.150Z,981.71
2018-01-22T10:07:03.069Z,981.74
2018-01-22T10:08:02.989Z,981.71
2018-01-22T10:09:02.958Z,981.67
2018-01-22T10:10:02.828Z,981.74
2018-01-22T10:11:02.748Z,981.78
2018-01-22T10:12:02.669Z,981.76
2018-01-22T10:13:02.587Z,981.75
2018-01-22T10:14:02.506Z,981.77
2018-01-22T10:15:02.472Z,981.78
2018-01-22T10:16:02.344Z,981.75
2018-01-22T10:17:02.267Z,981.72
2018-01-22T10:18:02.184Z,981.70
2018-01-22T10:19:02.104Z,981.73
2018-01-22T10:20:02.023Z,981.73
2018-01-22T10:21:01.942Z,981.75
2018-01-22T10:22:01.863Z,981.68
2018-01-22T10:23:01.782Z,981.74
2018-01-22T10:24:01.704Z,981.74
2018-01-22T10:25:01.622Z,981.72
2018-01-22T10:26:01.542Z,981.71
2018-01-22T10:27:01.462Z,981.68
2018-01-22T10:28:01.381Z,981.68
2018-01-22T10:29:01.301Z,981.64
2018-01-22T10:30:01.221Z,981.66
2018-01-22T10:31:01.142Z,981.72
2018-01-22T10:32:01.061Z,981.68
2018-01-22T10:33:00.981Z,981.70
2018-01-22T10:34:00.900Z,981.65
2018-01-22T10:35:00.822Z,981.69
2018-01-22T10:36:00.741Z,981.74
2018-01-22T10:37:00.662Z,981.71
2018-01-22T10:38:00.582Z,981.70
2018-01-22T10:39:00.502Z,981.70
2018-01-22T10:40:00.421Z,981.70
2018-01-22T10:41:00.342Z,981.72
2018-01-22T10:42:00.262Z,981.70
2018-01-22T10:43:00.182Z,981.70
2018-01-22T10:44:00.101Z,981.73
2018-01-22T10:45:00.029Z,981.67
2018-01-22T10:45:59.942Z,981.65
2018-01-22T10:46:59.863Z,981.66
2018-01-22T10:47:59.781Z,981.63
2018-01-22T10:48:59.703Z,981.59
2018-01-22T10:49:59.623Z,981.57
2018-01-22T10:50:59.544Z,981.55
2018-01-22T10:51:59.466Z,981.56
2018-01-22T10:52:59.383Z,981.56
2018-01-22T10:53:59.304Z,981.60
2018-01-22T10:54:59.225Z,981.55
2018-01-22T10:55:59.145Z,981.47
2018-01-22T10:56:59.065Z,981.53
2018-01-22T10:57:58.986Z,981.46
2018-01-22T10:58:58.906Z,981.45
2018-01-22T10:59:58.826Z,981.39
2018-01-22T11:00:58.750Z,981.42
2018-01-22T11:01:58.667Z,981.45
2018-01-22T11:02:58.588Z,981.45
2018-01-22T11:03:58.509Z,981.45
2018-01-22T11:04:58.430Z,981.42
2018-01-22T11:05:58.354Z,981.46
2018-01-22T11:06:58.272Z,981.49
2018-01-22T11:07:58.192Z,981.48
2018-01-22T11:08:58.112Z,981.50
2018-01-22T11:09:58.033Z,981.49
2018-01-22T11:10:58.009Z,981.44
2018-01-22T11:11:57.875Z,981.46
2018-01-22T11:12:57.795Z,981.50
2018-01-22T11:13:57.716Z,981.49
2018-01-22T11:14:57.637Z,981.52
2018-01-22T11:15:57.657Z,981.51
2018-01-22T11:16:57.481Z,981.49
2018-01-22T11:17:57.400Z,981.46
2018-01-22T11:18:57.347Z,981.49
2018-01-22T11:19:57.242Z,981.44
2018-01-22T11:20:57.162Z,981.43
2018-01-22T11:21:57.083Z,981.40
2018-01-22T11:22:57.005Z,981.37
2018-01-22T11:23:56.925Z,981.34
2018-01-22T11:24:56.847Z,981.30
2018-01-22T11:25:56.767Z,981.25
2018-01-22T11:26:56.689Z,981.32
2018-01-22T11:27:56.609Z,981.27
2018-01-22T11:28:56.529Z,981.30
2018-01-22T11:29:56.451Z,981.33
2018-01-22T11:30:56.373Z,981.34
2018-01-22T11:31:56.292Z,981.31
2018-01-22T11:32:56.213Z,981.30
2018-01-22T11:33:56.135Z,981.29
2018-01-22T11:34:56.057Z,981.31
2018-01-22T11:35:55.977Z,981.30
2018-01-22T11:36:55.900Z,981.31
2018-01-22T11:37:55.819Z,981.30
2018-01-22T11:38:55.741Z,981.33
2018-01-22T11:39:55.662Z,981.29
2018-01-22T11:40:55.583Z,981.24
2018-01-22T11:41:55.504Z,981.29
2018-01-22T11:42:55.432Z,981.28
2018-01-22T11:43:55.347Z,981.31
2018-01-22T11:44:55.269Z,981.29
2018-01-22T11:45:55.190Z,981.31
2018-01-22T11:46:55.113Z,981.27
2018-01-22T11:47:55.034Z,981.26
2018-01-22T11:48:54.959Z,981.27
2018-01-22T11:49:54.877Z,981.28
2018-01-22T11:50:54.799Z,981.24
2018-01-22T11:51:54.720Z,981.18
2018-01-22T11:52:54.641Z,981.22
2018-01-22T11:53:54.563Z,981.15
2018-01-22T11:54:54.485Z,981.19
2018-01-22T11:55:54.406Z,981.17
2018-01-22T11:56:54.328Z,981.19
2018-01-22T11:57:54.256Z,981.14
2018-01-22T11:58:54.172Z,981.11
2018-01-22T11:59:54.093Z,981.08
2018-01-22T12:00:54.017Z,981.10
2018-01-22T12:01:53.936Z,981.07
2018-01-22T12:02:53.859Z,981.10
2018-01-22T12:03:53.780Z,981.08
2018-01-22T12:04:53.702Z,981.07
2018-01-22T12:05:53.624Z,981.04
2018-01-22T12:06:53.545Z,981.05
2018-01-22T12:07:53.466Z,981.07
2018-01-22T12:08:53.388Z,981.08
2018-01-22T12:09:53.310Z,981.06
2018-01-22T12:10:53.232Z,981.11
2018-01-22T12:11:53.154Z,981.10
2018-01-22T12:12:53.075Z,981.08
2018-01-22T12:13:52.997Z,981.10
2018-01-22T12:14:52.927Z,981.07
2018-01-22T12:15:52.842Z,981.13
2018-01-22T12:16:52.763Z,981.11
2018-01-22T12:17:52.698Z,981.10
2018-01-22T12:18:52.607Z,981.10
2018-01-22T12:19:52.527Z,981.08
2018-01-22T12:20:52.450Z,981.13
2018-01-22T12:21:52.371Z,981.12
2018-01-22T12:22:52.294Z,981.14
2018-01-22T12:23:52.215Z,981.14
2018-01-22T12:24:52.137Z,981.15
2018-01-22T12:25:52.058Z,981.14
2018-01-22T12:26:51.981Z,981.13
2018-01-22T12:27:51.902Z,981.11
2018-01-22T12:28:51.823Z,981.10
2018-01-22T12:29:51.747Z,981.11
2018-01-22T12:30:51.668Z,981.13